sensor_id;sensor_type;location;lat;lon;timestamp;pressure;altitude;pressure_sealevel;temperature;humidity
81802;BME280;71199;52.490;5.448;2023-07-13T00:00:17;101431.59;;;14.62;89.46
81802;BME280;71199;52.490;5.448;2023-07-13T00:02:43;101423.28;;;14.62;89.83
81802;BME280;71199;52.490;5.448;2023-07-13T00:05:09;101436.47;;;14.75;89.46
81802;BME280;71199;52.490;5.448;2023-07-13T00:07:35;101435.91;;;14.80;88.73
81802;BME280;71199;52.490;5.448;2023-07-13T00:10:02;101426.09;;;14.77;89.14
81802;BME280;71199;52.490;5.448;2023-07-13T00:14:58;101425.91;;;14.79;89.57
81802;BME280;71199;52.490;5.448;2023-07-13T00:17:26;101420.63;;;14.69;89.64
81802;BME280;71199;52.490;5.448;2023-07-13T00:19:52;101430.44;;;14.71;90.54
81802;BME280;71199;52.490;5.448;2023-07-13T00:22:18;101427.56;;;14.65;90.50
81802;BME280;71199;52.490;5.448;2023-07-13T00:24:44;101431.19;;;14.65;90.72
81802;BME280;71199;52.490;5.448;2023-07-13T00:27:09;101430.53;;;14.63;90.75
81802;BME280;71199;52.490;5.448;2023-07-13T00:29:35;101430.34;;;14.65;91.19
81802;BME280;71199;52.490;5.448;2023-07-13T00:32:03;101437.97;;;14.63;91.13
81802;BME280;71199;52.490;5.448;2023-07-13T00:34:28;101429.84;;;14.61;91.36
81802;BME280;71199;52.490;5.448;2023-07-13T00:36:54;101426.41;;;14.59;91.57
81802;BME280;71199;52.490;5.448;2023-07-13T00:39:19;101420.19;;;14.57;91.94
81802;BME280;71199;52.490;5.448;2023-07-13T00:41:46;101433.13;;;14.65;91.86
81802;BME280;71199;52.490;5.448;2023-07-13T00:44:15;101433.78;;;14.67;91.74
81802;BME280;71199;52.490;5.448;2023-07-13T00:46:42;101432.19;;;14.73;91.25
81802;BME280;71199;52.490;5.448;2023-07-13T00:49:10;101432.97;;;14.81;91.22
81802;BME280;71199;52.490;5.448;2023-07-13T00:54:13;101419.97;;;14.82;90.84
81802;BME280;71199;52.490;5.448;2023-07-13T00:56:41;101425.84;;;14.87;91.10
81802;BME280;71199;52.490;5.448;2023-07-13T00:59:10;101418.19;;;14.89;90.92
81802;BME280;71199;52.490;5.448;2023-07-13T01:01:37;101422.31;;;14.93;90.79
81802;BME280;71199;52.490;5.448;2023-07-13T01:04:03;101413.13;;;14.93;90.95
81802;BME280;71199;52.490;5.448;2023-07-13T01:06:29;101412.69;;;15.04;90.74
81802;BME280;71199;52.490;5.448;2023-07-13T01:08:56;101413.16;;;15.07;90.04
81802;BME280;71199;52.490;5.448;2023-07-13T01:11:22;101418.31;;;15.10;90.36
81802;BME280;71199;52.490;5.448;2023-07-13T01:13:48;101428.22;;;15.05;90.29
81802;BME280;71199;52.490;5.448;2023-07-13T01:16:25;101419.25;;;15.03;90.22
81802;BME280;71199;52.490;5.448;2023-07-13T01:18:51;101427.38;;;15.04;90.11
81802;BME280;71199;52.490;5.448;2023-07-13T01:21:16;101432.72;;;15.06;90.05
81802;BME280;71199;52.490;5.448;2023-07-13T01:23:43;101426.69;;;15.02;89.88
81802;BME280;71199;52.490;5.448;2023-07-13T01:26:09;101426.53;;;15.04;89.78
81802;BME280;71199;52.490;5.448;2023-07-13T01:28:34;101426.78;;;15.09;90.13
81802;BME280;71199;52.490;5.448;2023-07-13T01:31:02;101422.31;;;15.08;89.88
81802;BME280;71199;52.490;5.448;2023-07-13T01:33:28;101429.19;;;15.12;89.80
81802;BME280;71199;52.490;5.448;2023-07-13T01:35:54;101426.78;;;15.09;89.89
81802;BME280;71199;52.490;5.448;2023-07-13T01:38:23;101423.94;;;15.02;89.85
81802;BME280;71199;52.490;5.448;2023-07-13T01:40:51;101421.75;;;14.98;90.36
81802;BME280;71199;52.490;5.448;2023-07-13T01:43:17;101419.72;;;14.91;90.59
81802;BME280;71199;52.490;5.448;2023-07-13T01:45:43;101432.31;;;14.94;91.06
81802;BME280;71199;52.490;5.448;2023-07-13T01:48:09;101426.97;;;14.93;91.26
81802;BME280;71199;52.490;5.448;2023-07-13T01:50:35;101430.22;;;14.96;91.09
81802;BME280;71199;52.490;5.448;2023-07-13T01:53:01;101426.41;;;14.97;91.02
81802;BME280;71199;52.490;5.448;2023-07-13T01:55:27;101439.50;;;15.03;91.09
81802;BME280;71199;52.490;5.448;2023-07-13T01:57:52;101432.41;;;15.01;90.41
81802;BME280;71199;52.490;5.448;2023-07-13T02:00:18;101433.41;;;15.08;90.47
81802;BME280;71199;52.490;5.448;2023-07-13T02:02:43;101442.06;;;15.05;90.47
81802;BME280;71199;52.490;5.448;2023-07-13T02:05:09;101444.16;;;15.03;90.80
81802;BME280;71199;52.490;5.448;2023-07-13T02:07:34;101439.19;;;14.98;90.71
81802;BME280;71199;52.490;5.448;2023-07-13T02:10:00;101435.19;;;15.01;90.59
81802;BME280;71199;52.490;5.448;2023-07-13T02:12:25;101434.72;;;14.97;90.67
81802;BME280;71199;52.490;5.448;2023-07-13T02:14:50;101436.81;;;14.95;91.22
81802;BME280;71199;52.490;5.448;2023-07-13T02:17:16;101447.69;;;14.97;91.15
81802;BME280;71199;52.490;5.448;2023-07-13T02:19:41;101444.91;;;14.97;91.22
81802;BME280;71199;52.490;5.448;2023-07-13T02:22:07;101443.38;;;14.94;91.03
81802;BME280;71199;52.490;5.448;2023-07-13T02:24:32;101447.75;;;14.88;91.25
81802;BME280;71199;52.490;5.448;2023-07-13T02:26:57;101439.91;;;14.77;91.09
81802;BME280;71199;52.490;5.448;2023-07-13T02:29:23;101447.03;;;14.71;91.72
81802;BME280;71199;52.490;5.448;2023-07-13T02:31:48;101441.75;;;14.62;91.87
81802;BME280;71199;52.490;5.448;2023-07-13T02:34:14;101448.38;;;14.52;92.15
81802;BME280;71199;52.490;5.448;2023-07-13T02:36:39;101454.66;;;14.46;92.52
81802;BME280;71199;52.490;5.448;2023-07-13T02:39:06;101452.44;;;14.42;92.53
81802;BME280;71199;52.490;5.448;2023-07-13T02:41:32;101450.59;;;14.34;93.07
81802;BME280;71199;52.490;5.448;2023-07-13T02:43:58;101452.88;;;14.30;92.74
81802;BME280;71199;52.490;5.448;2023-07-13T02:46:30;101437.69;;;14.26;92.87
81802;BME280;71199;52.490;5.448;2023-07-13T02:48:55;101447.53;;;14.29;92.93
81802;BME280;71199;52.490;5.448;2023-07-13T02:51:20;101445.63;;;14.29;92.67
81802;BME280;71199;52.490;5.448;2023-07-13T02:53:46;101450.78;;;14.32;92.95
81802;BME280;71199;52.490;5.448;2023-07-13T02:56:11;101450.78;;;14.32;92.66
81802;BME280;71199;52.490;5.448;2023-07-13T02:58:37;101450.97;;;14.31;92.44
81802;BME280;71199;52.490;5.448;2023-07-13T03:01:07;101447.72;;;14.27;92.50
81802;BME280;71199;52.490;5.448;2023-07-13T03:03:33;101452.38;;;14.27;92.32
81802;BME280;71199;52.490;5.448;2023-07-13T03:06:00;101451.72;;;14.25;92.02
81802;BME280;71199;52.490;5.448;2023-07-13T03:08:26;101457.28;;;14.17;92.32
81802;BME280;71199;52.490;5.448;2023-07-13T03:11:02;101459.72;;;14.11;92.63
81802;BME280;71199;52.490;5.448;2023-07-13T03:13:28;101450.41;;;14.13;92.79
81802;BME280;71199;52.490;5.448;2023-07-13T03:15:53;101455.59;;;14.07;92.63
81802;BME280;71199;52.490;5.448;2023-07-13T03:18:19;101452.53;;;14.02;92.85
81802;BME280;71199;52.490;5.448;2023-07-13T03:20:44;101457.88;;;14.04;92.68
81802;BME280;71199;52.490;5.448;2023-07-13T03:23:09;101465.63;;;14.08;92.65
81802;BME280;71199;52.490;5.448;2023-07-13T03:25:35;101465.09;;;14.13;93.08
81802;BME280;71199;52.490;5.448;2023-07-13T03:28:00;101467.84;;;14.13;92.34
81802;BME280;71199;52.490;5.448;2023-07-13T03:30:25;101467.66;;;14.15;92.12
81802;BME280;71199;52.490;5.448;2023-07-13T03:32:51;101474.19;;;14.22;91.84
81802;BME280;71199;52.490;5.448;2023-07-13T03:35:16;101475.53;;;14.26;91.76
81802;BME280;71199;52.490;5.448;2023-07-13T03:37:42;101456.50;;;14.31;91.91
81802;BME280;71199;52.490;5.448;2023-07-13T03:40:08;101465.94;;;14.37;91.11
81802;BME280;71199;52.490;5.448;2023-07-13T03:42:34;101463.88;;;14.39;91.01
81802;BME280;71199;52.490;5.448;2023-07-13T03:44:59;101463.88;;;14.39;90.76
81802;BME280;71199;52.490;5.448;2023-07-13T03:47:25;101468.72;;;14.37;90.67
81802;BME280;71199;52.490;5.448;2023-07-13T03:49:50;101477.50;;;14.40;90.09
81802;BME280;71199;52.490;5.448;2023-07-13T03:52:15;101483.53;;;14.44;89.69
81802;BME280;71199;52.490;5.448;2023-07-13T03:54:41;101472.72;;;14.34;89.64
81802;BME280;71199;52.490;5.448;2023-07-13T03:57:06;101475.97;;;14.38;89.30
81802;BME280;71199;52.490;5.448;2023-07-13T03:59:32;101476.16;;;14.36;89.51
81802;BME280;71199;52.490;5.448;2023-07-13T04:01:57;101476.16;;;14.36;89.10
81802;BME280;71199;52.490;5.448;2023-07-13T04:04:22;101487.22;;;14.36;88.49
81802;BME280;71199;52.490;5.448;2023-07-13T04:06:48;101487.72;;;14.40;87.83
81802;BME280;71199;52.490;5.448;2023-07-13T04:09:13;101489.13;;;14.36;88.00
81802;BME280;71199;52.490;5.448;2023-07-13T04:11:38;101495.50;;;14.36;87.28
81802;BME280;71199;52.490;5.448;2023-07-13T04:14:04;101491.38;;;14.32;87.94
81802;BME280;71199;52.490;5.448;2023-07-13T04:16:30;101492.28;;;14.24;88.18
81802;BME280;71199;52.490;5.448;2023-07-13T04:18:55;101493.84;;;14.27;88.27
81802;BME280;71199;52.490;5.448;2023-07-13T04:21:28;101493.84;;;14.27;88.64
81802;BME280;71199;52.490;5.448;2023-07-13T04:23:54;101501.59;;;14.31;88.03
81802;BME280;71199;52.490;5.448;2023-07-13T04:26:19;101511.53;;;14.41;87.04
81802;BME280;71199;52.490;5.448;2023-07-13T04:28:49;101512.16;;;14.51;87.11
81802;BME280;71199;52.490;5.448;2023-07-13T04:31:14;101505.03;;;14.65;86.70
81802;BME280;71199;52.490;5.448;2023-07-13T04:33:40;101506.31;;;14.77;86.54
81802;BME280;71199;52.490;5.448;2023-07-13T04:36:05;101512.06;;;14.90;85.90
81802;BME280;71199;52.490;5.448;2023-07-13T04:38:35;101510.22;;;15.06;84.98
81802;BME280;71199;52.490;5.448;2023-07-13T04:41:03;101506.91;;;15.25;84.21
81802;BME280;71199;52.490;5.448;2023-07-13T04:43:30;101516.31;;;15.39;83.59
81802;BME280;71199;52.490;5.448;2023-07-13T04:45:57;101512.78;;;15.60;83.19
81802;BME280;71199;52.490;5.448;2023-07-13T04:48:23;101514.34;;;15.78;82.66
81802;BME280;71199;52.490;5.448;2023-07-13T04:50:55;101511.66;;;15.99;82.29
81802;BME280;71199;52.490;5.448;2023-07-13T04:53:21;101514.38;;;16.14;81.50
81802;BME280;71199;52.490;5.448;2023-07-13T04:55:46;101521.16;;;16.26;81.00
81802;BME280;71199;52.490;5.448;2023-07-13T04:58:12;101514.66;;;16.34;80.69
81802;BME280;71199;52.490;5.448;2023-07-13T05:00:38;101524.25;;;16.53;80.20
81802;BME280;71199;52.490;5.448;2023-07-13T05:03:04;101517.06;;;16.59;79.46
81802;BME280;71199;52.490;5.448;2023-07-13T05:05:30;101518.72;;;16.75;79.38
81802;BME280;71199;52.490;5.448;2023-07-13T05:07:55;101529.94;;;17.03;78.18
81802;BME280;71199;52.490;5.448;2023-07-13T05:10:21;101527.75;;;17.26;77.16
81802;BME280;71199;52.490;5.448;2023-07-13T05:12:47;101521.22;;;17.34;77.09
81802;BME280;71199;52.490;5.448;2023-07-13T05:15:12;101524.41;;;17.66;75.93
81802;BME280;71199;52.490;5.448;2023-07-13T05:17:38;101531.28;;;17.70;75.66
81802;BME280;71199;52.490;5.448;2023-07-13T05:20:08;101540.28;;;17.72;75.25
81802;BME280;71199;52.490;5.448;2023-07-13T05:22:34;101539.16;;;17.66;76.56
81802;BME280;71199;52.490;5.448;2023-07-13T05:25:01;101544.88;;;17.58;76.31
81802;BME280;71199;52.490;5.448;2023-07-13T05:27:27;101544.13;;;17.43;76.77
81802;BME280;71199;52.490;5.448;2023-07-13T05:29:52;101539.91;;;17.47;77.23
81802;BME280;71199;52.490;5.448;2023-07-13T05:32:18;101541.41;;;17.49;77.48
81802;BME280;71199;52.490;5.448;2023-07-13T05:34:43;101548.97;;;17.62;76.96
81802;BME280;71199;52.490;5.448;2023-07-13T05:37:09;101537.81;;;17.56;76.95
81802;BME280;71199;52.490;5.448;2023-07-13T05:39:35;101547.38;;;17.46;77.63
81802;BME280;71199;52.490;5.448;2023-07-13T05:42:01;101550.50;;;17.37;78.01
81802;BME280;71199;52.490;5.448;2023-07-13T05:44:26;101552.31;;;17.23;78.32
81802;BME280;71199;52.490;5.448;2023-07-13T05:46:51;101549.84;;;17.13;79.15
81802;BME280;71199;52.490;5.448;2023-07-13T05:49:17;101553.44;;;17.07;79.75
81802;BME280;71199;52.490;5.448;2023-07-13T05:51:42;101558.59;;;17.10;80.11
81802;BME280;71199;52.490;5.448;2023-07-13T05:54:08;101560.72;;;17.08;79.53
81802;BME280;71199;52.490;5.448;2023-07-13T05:56:33;101549.19;;;17.11;80.49
81802;BME280;71199;52.490;5.448;2023-07-13T05:58:58;101559.06;;;17.14;80.88
81802;BME280;71199;52.490;5.448;2023-07-13T06:01:24;101566.78;;;17.18;80.45
81802;BME280;71199;52.490;5.448;2023-07-13T06:03:49;101568.78;;;17.24;80.78
81802;BME280;71199;52.490;5.448;2023-07-13T06:06:15;101567.50;;;17.27;80.05
81802;BME280;71199;52.490;5.448;2023-07-13T06:08:41;101566.19;;;17.23;80.30
81802;BME280;71199;52.490;5.448;2023-07-13T06:11:14;101567.13;;;17.30;80.68
81802;BME280;71199;52.490;5.448;2023-07-13T06:13:40;101572.44;;;17.31;80.76
81802;BME280;71199;52.490;5.448;2023-07-13T06:16:05;101572.06;;;17.35;81.02
81802;BME280;71199;52.490;5.448;2023-07-13T06:18:35;101586.16;;;17.33;80.48
81802;BME280;71199;52.490;5.448;2023-07-13T06:21:18;101588.72;;;17.35;80.97
81802;BME280;71199;52.490;5.448;2023-07-13T06:23:45;101587.94;;;17.41;80.64
81802;BME280;71199;52.490;5.448;2023-07-13T06:26:12;101583.41;;;17.40;80.89
81802;BME280;71199;52.490;5.448;2023-07-13T06:28:38;101587.38;;;17.52;80.68
81802;BME280;71199;52.490;5.448;2023-07-13T06:31:07;101585.06;;;17.56;80.17
81802;BME280;71199;52.490;5.448;2023-07-13T06:33:33;101582.38;;;17.69;80.01
81802;BME280;71199;52.490;5.448;2023-07-13T06:35:58;101584.47;;;17.88;80.18
81802;BME280;71199;52.490;5.448;2023-07-13T06:38:24;101579.00;;;18.02;80.34
81802;BME280;71199;52.490;5.448;2023-07-13T06:40:49;101587.41;;;18.15;78.79
81802;BME280;71199;52.490;5.448;2023-07-13T06:43:15;101583.59;;;18.23;78.57
81802;BME280;71199;52.490;5.448;2023-07-13T06:45:43;101584.94;;;18.33;77.58
81802;BME280;71199;52.490;5.448;2023-07-13T06:48:11;101593.13;;;18.48;77.45
81802;BME280;71199;52.490;5.448;2023-07-13T06:50:37;101595.94;;;18.55;75.90
81802;BME280;71199;52.490;5.448;2023-07-13T06:53:02;101600.72;;;18.75;75.82
81802;BME280;71199;52.490;5.448;2023-07-13T06:55:28;101595.63;;;18.85;75.00
81802;BME280;71199;52.490;5.448;2023-07-13T06:57:53;101596.53;;;18.99;74.17
81802;BME280;71199;52.490;5.448;2023-07-13T07:00:18;101595.69;;;19.05;73.41
81802;BME280;71199;52.490;5.448;2023-07-13T07:02:44;101607.50;;;19.07;72.93
81802;BME280;71199;52.490;5.448;2023-07-13T07:05:09;101609.44;;;19.13;72.71
81802;BME280;71199;52.490;5.448;2023-07-13T07:07:35;101604.28;;;19.43;72.15
81802;BME280;71199;52.490;5.448;2023-07-13T07:10:00;101599.94;;;20.21;70.04
81802;BME280;71199;52.490;5.448;2023-07-13T07:12:26;101588.03;;;20.45;67.12
81802;BME280;71199;52.490;5.448;2023-07-13T07:14:51;101597.13;;;20.79;65.75
81802;BME280;71199;52.490;5.448;2023-07-13T07:17:17;101601.31;;;21.33;64.24
81802;BME280;71199;52.490;5.448;2023-07-13T07:19:42;101601.56;;;21.57;63.31
81802;BME280;71199;52.490;5.448;2023-07-13T07:22:08;101603.38;;;21.70;62.58
81802;BME280;71199;52.490;5.448;2023-07-13T07:24:33;101612.78;;;22.26;61.42
81802;BME280;71199;52.490;5.448;2023-07-13T07:26:58;101611.81;;;22.13;59.91
81802;BME280;71199;52.490;5.448;2023-07-13T07:29:25;101606.78;;;21.79;59.81
81802;BME280;71199;52.490;5.448;2023-07-13T07:31:52;101605.44;;;21.24;61.30
81802;BME280;71199;52.490;5.448;2023-07-13T07:34:18;101609.41;;;21.10;61.73
81802;BME280;71199;52.490;5.448;2023-07-13T07:36:44;101600.56;;;20.81;62.01
81802;BME280;71199;52.490;5.448;2023-07-13T07:39:09;101607.59;;;20.45;62.50
81802;BME280;71199;52.490;5.448;2023-07-13T07:41:35;101606.19;;;20.09;62.06
81802;BME280;71199;52.490;5.448;2023-07-13T07:44:00;101620.84;;;19.71;65.03
81802;BME280;71199;52.490;5.448;2023-07-13T07:46:25;101623.13;;;19.15;65.79
81802;BME280;71199;52.490;5.448;2023-07-13T07:48:51;101626.72;;;18.88;66.17
81802;BME280;71199;52.490;5.448;2023-07-13T07:51:16;101626.22;;;18.78;66.59
81802;BME280;71199;52.490;5.448;2023-07-13T07:53:41;101634.97;;;18.75;66.52
81802;BME280;71199;52.490;5.448;2023-07-13T07:56:07;101632.34;;;18.60;67.64
81802;BME280;71199;52.490;5.448;2023-07-13T07:58:33;101626.72;;;18.47;68.69
81802;BME280;71199;52.490;5.448;2023-07-13T08:01:05;101628.63;;;18.40;70.31
81802;BME280;71199;52.490;5.448;2023-07-13T08:03:31;101623.44;;;18.30;70.14
81802;BME280;71199;52.490;5.448;2023-07-13T08:05:56;101625.13;;;18.24;70.89
81802;BME280;71199;52.490;5.448;2023-07-13T08:08:22;101639.22;;;18.16;71.76
81802;BME280;71199;52.490;5.448;2023-07-13T08:10:47;101639.41;;;18.15;71.90
81802;BME280;71199;52.490;5.448;2023-07-13T08:13:13;101625.00;;;18.04;72.10
81802;BME280;71199;52.490;5.448;2023-07-13T08:15:38;101633.91;;;18.28;72.07
81802;BME280;71199;52.490;5.448;2023-07-13T08:18:03;101635.06;;;18.47;71.16
81802;BME280;71199;52.490;5.448;2023-07-13T08:20:29;101638.97;;;18.59;71.26
81802;BME280;71199;52.490;5.448;2023-07-13T08:22:54;101649.59;;;18.84;71.39
81802;BME280;71199;52.490;5.448;2023-07-13T08:25:20;101641.56;;;19.22;69.35
81802;BME280;71199;52.490;5.448;2023-07-13T08:27:45;101641.81;;;19.47;68.82
81802;BME280;71199;52.490;5.448;2023-07-13T08:30:11;101639.25;;;19.46;68.14
81802;BME280;71199;52.490;5.448;2023-07-13T08:32:36;101635.38;;;19.40;67.31
81802;BME280;71199;52.490;5.448;2023-07-13T08:35:03;101641.59;;;19.36;68.56
81802;BME280;71199;52.490;5.448;2023-07-13T08:37:29;101647.38;;;19.27;68.91
81802;BME280;71199;52.490;5.448;2023-07-13T08:39:54;101644.34;;;19.09;68.45
81802;BME280;71199;52.490;5.448;2023-07-13T08:42:36;101644.53;;;19.01;64.66
81802;BME280;71199;52.490;5.448;2023-07-13T08:47:57;101639.72;;;19.89;61.12
81802;BME280;71199;52.490;5.448;2023-07-13T08:50:31;101640.81;;;20.67;58.00
81802;BME280;71199;52.490;5.448;2023-07-13T08:53:01;101638.31;;;21.29;55.96
81802;BME280;71199;52.490;5.448;2023-07-13T08:55:30;101651.41;;;21.92;53.67
81802;BME280;71199;52.490;5.448;2023-07-13T08:58:11;101649.31;;;22.31;52.57
81802;BME280;71199;52.490;5.448;2023-07-13T09:00:48;101645.41;;;22.50;51.89
81802;BME280;71199;52.490;5.448;2023-07-13T09:03:21;101648.28;;;22.44;51.66
81802;BME280;71199;52.490;5.448;2023-07-13T09:05:52;101651.31;;;22.42;51.98
81802;BME280;71199;52.490;5.448;2023-07-13T09:17:29;101651.13;;;21.11;54.45
81802;BME280;71199;52.490;5.448;2023-07-13T09:20:03;101652.56;;;20.82;55.18
81802;BME280;71199;52.490;5.448;2023-07-13T09:22:29;101652.88;;;20.47;57.03
81802;BME280;71199;52.490;5.448;2023-07-13T09:25:05;101656.81;;;20.26;57.68
81802;BME280;71199;52.490;5.448;2023-07-13T09:27:39;101664.75;;;20.29;59.81
81802;BME280;71199;52.490;5.448;2023-07-13T09:32:41;101664.34;;;19.59;62.13
81802;BME280;71199;52.490;5.448;2023-07-13T09:35:12;101660.41;;;19.07;64.44
81802;BME280;71199;52.490;5.448;2023-07-13T09:37:43;101660.31;;;18.80;65.82
81802;BME280;71199;52.490;5.448;2023-07-13T09:40:32;101656.72;;;19.00;66.02
81802;BME280;71199;52.490;5.448;2023-07-13T09:43:02;101665.44;;;19.85;61.49
81802;BME280;71199;52.490;5.448;2023-07-13T09:45:33;101655.25;;;20.44;58.77
81802;BME280;71199;52.490;5.448;2023-07-13T09:48:04;101671.78;;;20.52;57.23
81802;BME280;71199;52.490;5.448;2023-07-13T09:50:30;101674.53;;;20.72;56.24
81802;BME280;71199;52.490;5.448;2023-07-13T09:52:56;101667.34;;;21.28;53.56
81802;BME280;71199;52.490;5.448;2023-07-13T09:57:49;101685.09;;;22.29;51.03
81802;BME280;71199;52.490;5.448;2023-07-13T10:00:25;101670.47;;;22.02;51.21
81802;BME280;71199;52.490;5.448;2023-07-13T10:03:17;101677.06;;;21.57;51.21
81802;BME280;71199;52.490;5.448;2023-07-13T10:05:45;101690.50;;;21.42;52.55
81802;BME280;71199;52.490;5.448;2023-07-13T10:08:25;101690.28;;;21.43;52.42
81802;BME280;71199;52.490;5.448;2023-07-13T10:11:00;101695.22;;;21.41;51.40
81802;BME280;71199;52.490;5.448;2023-07-13T10:13:29;101699.63;;;21.24;52.44
81802;BME280;71199;52.490;5.448;2023-07-13T10:15:57;101692.81;;;21.13;53.00
81802;BME280;71199;52.490;5.448;2023-07-13T10:18:25;101699.69;;;21.10;52.00
81802;BME280;71199;52.490;5.448;2023-07-13T10:20:53;101706.91;;;21.25;51.63
81802;BME280;71199;52.490;5.448;2023-07-13T10:23:22;101707.16;;;21.23;51.75
81802;BME280;71199;52.490;5.448;2023-07-13T10:25:52;101710.13;;;21.28;52.30
81802;BME280;71199;52.490;5.448;2023-07-13T10:28:29;101722.78;;;21.38;51.94
81802;BME280;71199;52.490;5.448;2023-07-13T10:30:56;101706.84;;;21.45;52.88
81802;BME280;71199;52.490;5.448;2023-07-13T10:33:23;101720.97;;;21.57;50.82
81802;BME280;71199;52.490;5.448;2023-07-13T10:35:51;101709.84;;;21.50;51.82
81802;BME280;71199;52.490;5.448;2023-07-13T10:38:23;101711.94;;;21.55;51.35
81802;BME280;71199;52.490;5.448;2023-07-13T10:41:03;101711.03;;;21.61;51.25
81802;BME280;71199;52.490;5.448;2023-07-13T10:43:40;101726.97;;;21.60;49.28
81802;BME280;71199;52.490;5.448;2023-07-13T10:46:10;101723.19;;;21.48;49.72
81802;BME280;71199;52.490;5.448;2023-07-13T10:48:36;101738.69;;;21.44;50.84
81802;BME280;71199;52.490;5.448;2023-07-13T10:51:05;101732.66;;;21.47;49.53
81802;BME280;71199;52.490;5.448;2023-07-13T10:53:36;101735.91;;;21.44;49.61
81802;BME280;71199;52.490;5.448;2023-07-13T10:58:42;101733.22;;;21.56;49.07
81802;BME280;71199;52.490;5.448;2023-07-13T11:08:50;101746.63;;;21.40;48.58
81802;BME280;71199;52.490;5.448;2023-07-13T11:18:44;101745.56;;;21.48;50.00
81802;BME280;71199;52.490;5.448;2023-07-13T11:21:29;101744.47;;;21.81;50.14
81802;BME280;71199;52.490;5.448;2023-07-13T11:24:16;101748.88;;;21.95;48.65
81802;BME280;71199;52.490;5.448;2023-07-13T11:31:58;101748.94;;;21.57;50.69
81802;BME280;71199;52.490;5.448;2023-07-13T11:34:33;101743.81;;;21.47;49.87
81802;BME280;71199;52.490;5.448;2023-07-13T11:37:01;101751.16;;;21.48;50.40
81802;BME280;71199;52.490;5.448;2023-07-13T11:39:30;101754.38;;;21.45;50.35
81802;BME280;71199;52.490;5.448;2023-07-13T11:41:59;101744.28;;;21.37;49.54
81802;BME280;71199;52.490;5.448;2023-07-13T11:44:29;101754.59;;;21.37;51.79
81802;BME280;71199;52.490;5.448;2023-07-13T11:46:59;101752.53;;;21.25;51.02
81802;BME280;71199;52.490;5.448;2023-07-13T11:49:28;101755.16;;;21.13;51.02
81802;BME280;71199;52.490;5.448;2023-07-13T11:51:55;101756.88;;;21.08;51.18
81802;BME280;71199;52.490;5.448;2023-07-13T11:54:28;101756.47;;;21.11;51.20
81802;BME280;71199;52.490;5.448;2023-07-13T11:56:55;101764.56;;;21.26;49.68
81802;BME280;71199;52.490;5.448;2023-07-13T11:59:23;101756.59;;;21.23;50.30
81802;BME280;71199;52.490;5.448;2023-07-13T12:01:52;101755.97;;;21.27;50.52
81802;BME280;71199;52.490;5.448;2023-07-13T12:06:55;101757.66;;;21.28;49.80
81802;BME280;71199;52.490;5.448;2023-07-13T12:09:21;101762.19;;;21.23;50.04
81802;BME280;71199;52.490;5.448;2023-07-13T12:11:50;101759.25;;;21.11;50.43
81802;BME280;71199;52.490;5.448;2023-07-13T12:14:17;101764.22;;;21.02;50.18
81802;BME280;71199;52.490;5.448;2023-07-13T12:16:43;101756.06;;;21.01;50.40
81802;BME280;71199;52.490;5.448;2023-07-13T12:19:25;101751.78;;;20.98;50.35
81802;BME280;71199;52.490;5.448;2023-07-13T12:21:55;101764.44;;;21.07;49.55
81802;BME280;71199;52.490;5.448;2023-07-13T12:24:22;101762.09;;;20.98;49.95
81802;BME280;71199;52.490;5.448;2023-07-13T12:27:01;101752.00;;;20.97;49.13
81802;BME280;71199;52.490;5.448;2023-07-13T12:29:27;101757.81;;;20.95;50.68
81802;BME280;71199;52.490;5.448;2023-07-13T12:31:53;101767.53;;;20.86;50.30
81802;BME280;71199;52.490;5.448;2023-07-13T12:34:20;101759.59;;;20.76;50.21
81802;BME280;71199;52.490;5.448;2023-07-13T12:36:50;101760.00;;;20.73;52.21
81802;BME280;71199;52.490;5.448;2023-07-13T12:39:19;101780.84;;;20.77;52.09
81802;BME280;71199;52.490;5.448;2023-07-13T12:41:45;101772.91;;;20.81;51.54
81802;BME280;71199;52.490;5.448;2023-07-13T12:44:13;101780.84;;;20.77;51.29
81802;BME280;71199;52.490;5.448;2023-07-13T12:46:39;101775.91;;;20.79;51.32
81802;BME280;71199;52.490;5.448;2023-07-13T12:49:07;101768.59;;;20.85;51.77
81802;BME280;71199;52.490;5.448;2023-07-13T12:51:33;101780.78;;;20.97;50.47
81802;BME280;71199;52.490;5.448;2023-07-13T12:54:17;101773.72;;;20.95;50.13
81802;BME280;71199;52.490;5.448;2023-07-13T12:56:44;101774.16;;;20.91;50.64
81802;BME280;71199;52.490;5.448;2023-07-13T12:59:17;101785.13;;;20.86;50.27
81802;BME280;71199;52.490;5.448;2023-07-13T13:01:43;101784.28;;;20.79;52.25
81802;BME280;71199;52.490;5.448;2023-07-13T13:04:09;101785.41;;;20.71;51.86
81802;BME280;71199;52.490;5.448;2023-07-13T13:06:36;101771.63;;;20.70;51.57
81802;BME280;71199;52.490;5.448;2023-07-13T13:09:03;101785.78;;;20.75;51.37
81802;BME280;71199;52.490;5.448;2023-07-13T13:11:30;101781.94;;;20.76;51.18
81802;BME280;71199;52.490;5.448;2023-07-13T13:13:55;101780.84;;;20.77;52.10
81802;BME280;71199;52.490;5.448;2023-07-13T13:16:30;101777.41;;;20.88;52.96
81802;BME280;71199;52.490;5.448;2023-07-13T13:19:00;101779.75;;;20.85;51.53
81802;BME280;71199;52.490;5.448;2023-07-13T13:21:27;101790.72;;;20.86;51.81
81802;BME280;71199;52.490;5.448;2023-07-13T13:23:53;101796.53;;;20.85;51.87
81802;BME280;71199;52.490;5.448;2023-07-13T13:26:20;101795.22;;;20.87;53.53
81802;BME280;71199;52.490;5.448;2023-07-13T13:28:46;101786.19;;;20.92;53.33
81802;BME280;71199;52.490;5.448;2023-07-13T13:31:13;101799.06;;;21.00;52.31
81802;BME280;71199;52.490;5.448;2023-07-13T13:33:41;101804.25;;;20.96;50.83
81802;BME280;71199;52.490;5.448;2023-07-13T13:36:20;101792.41;;;20.87;52.98
81802;BME280;71199;52.490;5.448;2023-07-13T13:38:47;101794.78;;;20.90;53.09